sensor_id;sensor_type;location;lat;lon;timestamp;P1;durP1;ratioP1;P2;durP2;ratioP2
41468;SDS011;27206;47.032;15.484;2023-04-01T00:02:17;3.03;;;1.45;;
41468;SDS011;27206;47.032;15.484;2023-04-01T00:04:43;3.78;;;1.52;;
41468;SDS011;27206;47.032;15.484;2023-04-01T00:07:09;3.58;;;1.60;;
41468;SDS011;27206;47.032;15.484;2023-04-01T00:09:35;3.13;;;1.40;;
41468;SDS011;27206;47.032;15.484;2023-04-01T00:12:01;2.83;;;1.60;;
41468;SDS011;27206;47.032;15.484;2023-04-01T00:14:27;3.60;;;1.83;;
41468;SDS011;27206;47.032;15.484;2023-04-01T00:16:54;2.65;;;1.60;;
41468;SDS011;27206;47.032;15.484;2023-04-01T00:19:19;2.63;;;1.50;;
41468;SDS011;27206;47.032;15.484;2023-04-01T00:21:45;2.88;;;1.75;;
41468;SDS011;27206;47.032;15.484;2023-04-01T00:24:11;5.13;;;1.83;;
41468;SDS011;27206;47.032;15.484;2023-04-01T00:26:37;2.50;;;1.40;;
41468;SDS011;27206;47.032;15.484;2023-04-01T00:29:02;4.22;;;1.60;;
41468;SDS011;27206;47.032;15.484;2023-04-01T00:31:28;3.83;;;2.00;;
41468;SDS011;27206;47.032;15.484;2023-04-01T00:33:55;1.80;;;1.40;;
41468;SDS011;27206;47.032;15.484;2023-04-01T00:36:21;4.13;;;1.80;;
41468;SDS011;27206;47.032;15.484;2023-04-01T00:38:48;3.35;;;1.90;;
41468;SDS011;27206;47.032;15.484;2023-04-01T00:41:14;4.28;;;1.67;;
41468;SDS011;27206;47.032;15.484;2023-04-01T00:43:42;3.10;;;1.83;;
41468;SDS011;27206;47.032;15.484;2023-04-01T00:46:09;2.33;;;1.48;;
41468;SDS011;27206;47.032;15.484;2023-04-01T00:48:36;2.75;;;1.55;;
41468;SDS011;27206;47.032;15.484;2023-04-01T00:51:09;3.05;;;1.65;;
41468;SDS011;27206;47.032;15.484;2023-04-01T00:53:41;2.47;;;1.70;;
41468;SDS011;27206;47.032;15.484;2023-04-01T00:56:11;2.55;;;1.45;;
41468;SDS011;27206;47.032;15.484;2023-04-01T00:58:44;2.65;;;1.70;;
41468;SDS011;27206;47.032;15.484;2023-04-01T01:01:13;2.80;;;1.58;;
41468;SDS011;27206;47.032;15.484;2023-04-01T01:03:38;2.97;;;1.60;;
41468;SDS011;27206;47.032;15.484;2023-04-01T01:06:09;2.97;;;1.80;;
41468;SDS011;27206;47.032;15.484;2023-04-01T01:11:16;2.53;;;1.60;;
41468;SDS011;27206;47.032;15.484;2023-04-01T01:14:01;4.53;;;1.90;;
41468;SDS011;27206;47.032;15.484;2023-04-01T01:16:58;3.03;;;1.80;;
41468;SDS011;27206;47.032;15.484;2023-04-01T01:27:58;2.38;;;1.33;;
41468;SDS011;27206;47.032;15.484;2023-04-01T01:30:37;2.60;;;1.70;;
41468;SDS011;27206;47.032;15.484;2023-04-01T01:36:16;2.05;;;1.52;;
41468;SDS011;27206;47.032;15.484;2023-04-01T01:38:44;2.25;;;1.40;;
41468;SDS011;27206;47.032;15.484;2023-04-01T01:41:12;3.08;;;1.77;;
41468;SDS011;27206;47.032;15.484;2023-04-01T01:43:42;2.75;;;1.60;;
41468;SDS011;27206;47.032;15.484;2023-04-01T01:46:12;3.15;;;1.70;;
41468;SDS011;27206;47.032;15.484;2023-04-01T01:48:41;3.10;;;1.60;;
41468;SDS011;27206;47.032;15.484;2023-04-01T01:51:08;3.17;;;1.80;;
41468;SDS011;27206;47.032;15.484;2023-04-01T01:53:35;3.95;;;1.65;;
41468;SDS011;27206;47.032;15.484;2023-04-01T01:56:01;2.67;;;1.67;;
41468;SDS011;27206;47.032;15.484;2023-04-01T01:58:29;2.17;;;1.42;;
41468;SDS011;27206;47.032;15.484;2023-04-01T02:01:01;3.03;;;1.50;;
41468;SDS011;27206;47.032;15.484;2023-04-01T02:03:31;2.88;;;1.55;;
41468;SDS011;27206;47.032;15.484;2023-04-01T02:06:01;4.82;;;1.55;;
41468;SDS011;27206;47.032;15.484;2023-04-01T02:08:38;2.33;;;1.65;;
41468;SDS011;27206;47.032;15.484;2023-04-01T02:11:18;2.72;;;1.60;;
41468;SDS011;27206;47.032;15.484;2023-04-01T02:18:57;3.00;;;1.80;;
41468;SDS011;27206;47.032;15.484;2023-04-01T02:21:26;2.80;;;1.77;;
41468;SDS011;27206;47.032;15.484;2023-04-01T02:23:56;2.58;;;1.85;;
41468;SDS011;27206;47.032;15.484;2023-04-01T02:26:24;3.45;;;1.90;;
41468;SDS011;27206;47.032;15.484;2023-04-01T02:28:51;3.42;;;1.90;;
41468;SDS011;27206;47.032;15.484;2023-04-01T02:31:19;4.20;;;1.60;;
41468;SDS011;27206;47.032;15.484;2023-04-01T02:33:46;3.80;;;1.90;;
41468;SDS011;27206;47.032;15.484;2023-04-01T02:36:13;2.20;;;1.65;;
41468;SDS011;27206;47.032;15.484;2023-04-01T02:38:39;2.45;;;1.52;;
41468;SDS011;27206;47.032;15.484;2023-04-01T02:41:07;2.75;;;1.77;;
41468;SDS011;27206;47.032;15.484;2023-04-01T02:43:33;4.55;;;1.90;;
41468;SDS011;27206;47.032;15.484;2023-04-01T02:45:59;4.18;;;2.15;;
41468;SDS011;27206;47.032;15.484;2023-04-01T02:48:24;4.32;;;1.92;;
41468;SDS011;27206;47.032;15.484;2023-04-01T02:50:50;4.78;;;1.70;;
41468;SDS011;27206;47.032;15.484;2023-04-01T02:53:16;4.22;;;1.77;;
41468;SDS011;27206;47.032;15.484;2023-04-01T02:55:42;3.33;;;1.88;;
41468;SDS011;27206;47.032;15.484;2023-04-01T02:58:09;3.55;;;2.15;;
41468;SDS011;27206;47.032;15.484;2023-04-01T03:00:35;3.88;;;1.92;;
41468;SDS011;27206;47.032;15.484;2023-04-01T03:03:01;4.32;;;2.08;;
41468;SDS011;27206;47.032;15.484;2023-04-01T03:05:28;5.57;;;1.95;;
41468;SDS011;27206;47.032;15.484;2023-04-01T03:07:53;5.57;;;2.13;;
41468;SDS011;27206;47.032;15.484;2023-04-01T03:10:20;4.93;;;2.10;;
41468;SDS011;27206;47.032;15.484;2023-04-01T03:12:46;3.97;;;2.10;;
41468;SDS011;27206;47.032;15.484;2023-04-01T03:15:12;4.55;;;2.47;;
41468;SDS011;27206;47.032;15.484;2023-04-01T03:17:39;4.43;;;2.58;;
41468;SDS011;27206;47.032;15.484;2023-04-01T03:20:06;4.75;;;2.67;;
41468;SDS011;27206;47.032;15.484;2023-04-01T03:22:34;6.35;;;2.72;;
41468;SDS011;27206;47.032;15.484;2023-04-01T03:25:00;6.15;;;2.50;;
41468;SDS011;27206;47.032;15.484;2023-04-01T03:27:27;7.07;;;2.53;;
41468;SDS011;27206;47.032;15.484;2023-04-01T03:29:53;4.97;;;2.35;;
41468;SDS011;27206;47.032;15.484;2023-04-01T03:32:18;4.82;;;2.30;;
41468;SDS011;27206;47.032;15.484;2023-04-01T03:34:44;3.60;;;2.20;;
41468;SDS011;27206;47.032;15.484;2023-04-01T03:37:10;5.65;;;2.22;;
41468;SDS011;27206;47.032;15.484;2023-04-01T03:39:35;5.65;;;2.50;;
41468;SDS011;27206;47.032;15.484;2023-04-01T03:42:01;5.00;;;2.45;;
41468;SDS011;27206;47.032;15.484;2023-04-01T03:44:30;4.00;;;2.20;;
41468;SDS011;27206;47.032;15.484;2023-04-01T03:46:57;5.43;;;2.80;;
41468;SDS011;27206;47.032;15.484;2023-04-01T03:49:22;4.28;;;2.33;;
41468;SDS011;27206;47.032;15.484;2023-04-01T03:51:48;4.05;;;2.25;;
41468;SDS011;27206;47.032;15.484;2023-04-01T03:54:14;6.32;;;2.80;;
41468;SDS011;27206;47.032;15.484;2023-04-01T03:56:39;3.72;;;2.45;;
41468;SDS011;27206;47.032;15.484;2023-04-01T03:59:06;4.20;;;2.60;;
41468;SDS011;27206;47.032;15.484;2023-04-01T04:01:33;4.03;;;2.42;;
41468;SDS011;27206;47.032;15.484;2023-04-01T04:03:58;4.38;;;2.45;;
41468;SDS011;27206;47.032;15.484;2023-04-01T04:06:25;4.85;;;2.60;;
41468;SDS011;27206;47.032;15.484;2023-04-01T04:08:51;4.45;;;2.47;;
41468;SDS011;27206;47.032;15.484;2023-04-01T04:11:17;7.00;;;2.50;;
41468;SDS011;27206;47.032;15.484;2023-04-01T04:13:44;3.17;;;2.00;;
41468;SDS011;27206;47.032;15.484;2023-04-01T04:16:09;3.75;;;2.67;;
41468;SDS011;27206;47.032;15.484;2023-04-01T04:18:36;4.15;;;2.28;;
41468;SDS011;27206;47.032;15.484;2023-04-01T04:21:02;3.70;;;2.55;;
41468;SDS011;27206;47.032;15.484;2023-04-01T04:23:28;4.40;;;2.42;;
41468;SDS011;27206;47.032;15.484;2023-04-01T04:28:26;5.47;;;2.78;;
41468;SDS011;27206;47.032;15.484;2023-04-01T04:30:52;5.90;;;2.78;;
41468;SDS011;27206;47.032;15.484;2023-04-01T04:33:19;4.25;;;2.45;;
41468;SDS011;27206;47.032;15.484;2023-04-01T04:35:45;4.63;;;2.55;;
41468;SDS011;27206;47.032;15.484;2023-04-01T04:38:11;4.28;;;2.42;;
41468;SDS011;27206;47.032;15.484;2023-04-01T04:40:37;4.55;;;2.60;;
41468;SDS011;27206;47.032;15.484;2023-04-01T04:43:04;4.75;;;2.65;;
41468;SDS011;27206;47.032;15.484;2023-04-01T04:45:30;4.93;;;2.63;;
41468;SDS011;27206;47.032;15.484;2023-04-01T04:47:56;4.05;;;2.42;;
41468;SDS011;27206;47.032;15.484;2023-04-01T04:50:22;4.78;;;2.55;;
41468;SDS011;27206;47.032;15.484;2023-04-01T04:52:47;5.25;;;2.60;;
41468;SDS011;27206;47.032;15.484;2023-04-01T04:55:13;3.60;;;2.08;;
41468;SDS011;27206;47.032;15.484;2023-04-01T04:57:40;3.90;;;2.47;;
41468;SDS011;27206;47.032;15.484;2023-04-01T05:00:06;4.35;;;2.45;;
41468;SDS011;27206;47.032;15.484;2023-04-01T05:02:32;5.75;;;2.70;;
41468;SDS011;27206;47.032;15.484;2023-04-01T05:04:58;4.65;;;2.60;;
41468;SDS011;27206;47.032;15.484;2023-04-01T05:07:24;5.25;;;2.78;;
41468;SDS011;27206;47.032;15.484;2023-04-01T05:09:50;7.20;;;3.58;;
41468;SDS011;27206;47.032;15.484;2023-04-01T05:12:15;5.10;;;3.05;;
41468;SDS011;27206;47.032;15.484;2023-04-01T05:14:41;4.60;;;2.90;;
41468;SDS011;27206;47.032;15.484;2023-04-01T05:17:10;6.68;;;3.38;;
41468;SDS011;27206;47.032;15.484;2023-04-01T05:19:37;5.80;;;3.20;;
41468;SDS011;27206;47.032;15.484;2023-04-01T05:22:03;6.93;;;3.47;;
41468;SDS011;27206;47.032;15.484;2023-04-01T05:24:29;5.03;;;2.97;;
41468;SDS011;27206;47.032;15.484;2023-04-01T05:26:55;4.05;;;2.78;;
41468;SDS011;27206;47.032;15.484;2023-04-01T05:29:22;3.65;;;2.35;;
41468;SDS011;27206;47.032;15.484;2023-04-01T05:31:48;4.07;;;2.67;;
41468;SDS011;27206;47.032;15.484;2023-04-01T05:34:14;5.15;;;2.60;;
41468;SDS011;27206;47.032;15.484;2023-04-01T05:36:40;5.90;;;2.90;;
41468;SDS011;27206;47.032;15.484;2023-04-01T05:39:06;7.30;;;2.90;;
41468;SDS011;27206;47.032;15.484;2023-04-01T05:41:34;5.93;;;3.22;;
41468;SDS011;27206;47.032;15.484;2023-04-01T05:44:01;5.93;;;2.67;;
41468;SDS011;27206;47.032;15.484;2023-04-01T05:46:27;5.22;;;2.90;;
41468;SDS011;27206;47.032;15.484;2023-04-01T05:48:52;4.93;;;2.67;;
41468;SDS011;27206;47.032;15.484;2023-04-01T05:51:18;6.00;;;2.70;;
41468;SDS011;27206;47.032;15.484;2023-04-01T05:53:44;5.18;;;2.72;;
41468;SDS011;27206;47.032;15.484;2023-04-01T05:56:10;4.40;;;2.90;;
41468;SDS011;27206;47.032;15.484;2023-04-01T05:58:36;7.60;;;2.90;;
41468;SDS011;27206;47.032;15.484;2023-04-01T06:01:06;4.32;;;2.30;;
41468;SDS011;27206;47.032;15.484;2023-04-01T06:03:33;7.28;;;2.50;;
41468;SDS011;27206;47.032;15.484;2023-04-01T06:05:59;6.72;;;3.10;;
41468;SDS011;27206;47.032;15.484;2023-04-01T06:08:26;5.20;;;3.10;;
41468;SDS011;27206;47.032;15.484;2023-04-01T06:22:12;4.63;;;2.58;;
41468;SDS011;27206;47.032;15.484;2023-04-01T06:26:09;4.00;;;2.38;;
41468;SDS011;27206;47.032;15.484;2023-04-01T06:31:31;3.92;;;2.42;;
41468;SDS011;27206;47.032;15.484;2023-04-01T06:34:18;4.93;;;2.40;;
41468;SDS011;27206;47.032;15.484;2023-04-01T06:45:10;5.60;;;2.97;;
41468;SDS011;27206;47.032;15.484;2023-04-01T06:56:38;6.53;;;3.28;;
41468;SDS011;27206;47.032;15.484;2023-04-01T06:59:25;4.88;;;3.20;;
41468;SDS011;27206;47.032;15.484;2023-04-01T07:01:58;4.60;;;2.38;;
41468;SDS011;27206;47.032;15.484;2023-04-01T07:04:43;4.57;;;2.55;;
41468;SDS011;27206;47.032;15.484;2023-04-01T07:10:21;4.47;;;2.40;;
41468;SDS011;27206;47.032;15.484;2023-04-01T07:12:56;4.35;;;2.10;;
41468;SDS011;27206;47.032;15.484;2023-04-01T07:15:30;5.18;;;2.35;;
41468;SDS011;27206;47.032;15.484;2023-04-01T07:18:12;8.80;;;2.83;;
41468;SDS011;27206;47.032;15.484;2023-04-01T07:20:43;6.00;;;2.58;;
41468;SDS011;27206;47.032;15.484;2023-04-01T07:23:52;4.35;;;2.30;;
41468;SDS011;27206;47.032;15.484;2023-04-01T07:28:39;4.20;;;2.40;;
41468;SDS011;27206;47.032;15.484;2023-04-01T07:33:50;3.78;;;2.28;;
41468;SDS011;27206;47.032;15.484;2023-04-01T07:50:20;3.33;;;1.80;;
41468;SDS011;27206;47.032;15.484;2023-04-01T07:55:38;4.60;;;2.10;;
41468;SDS011;27206;47.032;15.484;2023-04-01T08:04:57;5.75;;;2.08;;
41468;SDS011;27206;47.032;15.484;2023-04-01T08:07:49;2.88;;;1.75;;
41468;SDS011;27206;47.032;15.484;2023-04-01T08:21:05;2.90;;;1.38;;
41468;SDS011;27206;47.032;15.484;2023-04-01T08:23:45;1.77;;;1.40;;
41468;SDS011;27206;47.032;15.484;2023-04-01T08:31:14;3.38;;;1.42;;
41468;SDS011;27206;47.032;15.484;2023-04-01T08:33:56;1.92;;;1.30;;
41468;SDS011;27206;47.032;15.484;2023-04-01T08:36:24;2.40;;;1.23;;
41468;SDS011;27206;47.032;15.484;2023-04-01T09:01:33;3.20;;;1.80;;
41468;SDS011;27206;47.032;15.484;2023-04-01T09:20:19;3.17;;;1.27;;
41468;SDS011;27206;47.032;15.484;2023-04-01T09:22:50;2.42;;;1.40;;
41468;SDS011;27206;47.032;15.484;2023-04-01T09:36:33;1.52;;;1.10;;
41468;SDS011;27206;47.032;15.484;2023-04-01T09:42:07;2.25;;;1.20;;
41468;SDS011;27206;47.032;15.484;2023-04-01T09:44:56;2.78;;;1.15;;
41468;SDS011;27206;47.032;15.484;2023-04-01T09:47:36;2.33;;;1.08;;
41468;SDS011;27206;47.032;15.484;2023-04-01T09:50:50;2.38;;;1.30;;
41468;SDS011;27206;47.032;15.484;2023-04-01T09:59:01;1.23;;;0.80;;
41468;SDS011;27206;47.032;15.484;2023-04-01T10:10:25;1.77;;;1.05;;
41468;SDS011;27206;47.032;15.484;2023-04-01T10:19:03;1.67;;;0.80;;
41468;SDS011;27206;47.032;15.484;2023-04-01T10:21:39;0.90;;;0.68;;
41468;SDS011;27206;47.032;15.484;2023-04-01T10:32:43;1.20;;;0.90;;
41468;SDS011;27206;47.032;15.484;2023-04-01T10:38:16;0.75;;;0.65;;
41468;SDS011;27206;47.032;15.484;2023-04-01T10:43:37;0.40;;;0.40;;
41468;SDS011;27206;47.032;15.484;2023-04-01T10:51:25;0.50;;;0.50;;
41468;SDS011;27206;47.032;15.484;2023-04-01T11:02:57;0.40;;;0.40;;
41468;SDS011;27206;47.032;15.484;2023-04-01T11:31:29;0.82;;;0.60;;
41468;SDS011;27206;47.032;15.484;2023-04-01T11:43:29;1.40;;;0.73;;
41468;SDS011;27206;47.032;15.484;2023-04-01T11:46:18;2.03;;;0.60;;
41468;SDS011;27206;47.032;15.484;2023-04-01T11:52:25;0.40;;;0.40;;
41468;SDS011;27206;47.032;15.484;2023-04-01T12:24:55;0.40;;;0.40;;
41468;SDS011;27206;47.032;15.484;2023-04-01T12:30:35;0.50;;;0.50;;
41468;SDS011;27206;47.032;15.484;2023-04-01T12:38:48;0.40;;;0.40;;
41468;SDS011;27206;47.032;15.484;2023-04-01T12:44:26;0.40;;;0.40;;
41468;SDS011;27206;47.032;15.484;2023-04-01T12:49:23;0.95;;;0.40;;
41468;SDS011;27206;47.032;15.484;2023-04-01T12:52:03;0.40;;;0.40;;
41468;SDS011;27206;47.032;15.484;2023-04-01T12:57:20;0.40;;;0.40;;
41468;SDS011;27206;47.032;15.484;2023-04-01T13:07:49;0.50;;;0.47;;
41468;SDS011;27206;47.032;15.484;2023-04-01T13:10:35;0.30;;;0.30;;
41468;SDS011;27206;47.032;15.484;2023-04-01T13:18:54;0.40;;;0.40;;
41468;SDS011;27206;47.032;15.484;2023-04-01T13:29:45;0.30;;;0.30;;
41468;SDS011;27206;47.032;15.484;2023-04-01T13:35:16;0.28;;;0.28;;
41468;SDS011;27206;47.032;15.484;2023-04-01T13:37:52;0.30;;;0.30;;
41468;SDS011;27206;47.032;15.484;2023-04-01T13:43:10;0.40;;;0.40;;
41468;SDS011;27206;47.032;15.484;2023-04-01T13:54:22;0.38;;;0.38;;
41468;SDS011;27206;47.032;15.484;2023-04-01T14:05:20;3.10;;;1.00;;
41468;SDS011;27206;47.032;15.484;2023-04-01T14:08:15;0.68;;;0.45;;
41468;SDS011;27206;47.032;15.484;2023-04-01T14:10:50;0.40;;;0.40;;
41468;SDS011;27206;47.032;15.484;2023-04-01T14:13:52;1.60;;;0.90;;
41468;SDS011;27206;47.032;15.484;2023-04-01T14:17:09;0.50;;;0.50;;
41468;SDS011;27206;47.032;15.484;2023-04-01T14:22:22;0.40;;;0.40;;
41468;SDS011;27206;47.032;15.484;2023-04-01T14:27:33;0.70;;;0.60;;
41468;SDS011;27206;47.032;15.484;2023-04-01T14:32:45;0.40;;;0.40;;
41468;SDS011;27206;47.032;15.484;2023-04-01T14:35:41;0.45;;;0.43;;
41468;SDS011;27206;47.032;15.484;2023-04-01T14:43:49;0.55;;;0.40;;
41468;SDS011;27206;47.032;15.484;2023-04-01T14:52:09;0.40;;;0.40;;
41468;SDS011;27206;47.032;15.484;2023-04-01T14:54:42;0.40;;;0.40;;
41468;SDS011;27206;47.032;15.484;2023-04-01T14:57:12;0.40;;;0.40;;
41468;SDS011;27206;47.032;15.484;2023-04-01T14:59:40;0.32;;;0.32;;
41468;SDS011;27206;47.032;15.484;2023-04-01T15:08:03;0.55;;;0.40;;
41468;SDS011;27206;47.032;15.484;2023-04-01T15:13:14;0.40;;;0.40;;
41468;SDS011;27206;47.032;15.484;2023-04-01T15:22:19;0.38;;;0.38;;
41468;SDS011;27206;47.032;15.484;2023-04-01T15:24:46;0.30;;;0.30;;
41468;SDS011;27206;47.032;15.484;2023-04-01T15:35:37;0.60;;;0.40;;
41468;SDS011;27206;47.032;15.484;2023-04-01T15:38:33;0.40;;;0.40;;
41468;SDS011;27206;47.032;15.484;2023-04-01T15:49:28;0.40;;;0.40;;
41468;SDS011;27206;47.032;15.484;2023-04-01T16:00:02;0.50;;;0.40;;
41468;SDS011;27206;47.032;15.484;2023-04-01T16:05:25;0.20;;;0.20;;
41468;SDS011;27206;47.032;15.484;2023-04-01T16:21:11;0.40;;;0.20;;
41468;SDS011;27206;47.032;15.484;2023-04-01T16:23:56;0.35;;;0.20;;
41468;SDS011;27206;47.032;15.484;2023-04-01T16:26:38;0.30;;;0.30;;
41468;SDS011;27206;47.032;15.484;2023-04-01T16:29:56;0.35;;;0.35;;
41468;SDS011;27206;47.032;15.484;2023-04-01T16:37:52;0.88;;;0.50;;
41468;SDS011;27206;47.032;15.484;2023-04-01T16:40:25;1.38;;;0.60;;
41468;SDS011;27206;47.032;15.484;2023-04-01T16:48:47;2.45;;;0.90;;
41468;SDS011;27206;47.032;15.484;2023-04-01T16:51:15;1.52;;;0.57;;
41468;SDS011;27206;47.032;15.484;2023-04-01T16:53:47;0.80;;;0.60;;
41468;SDS011;27206;47.032;15.484;2023-04-01T16:56:24;2.70;;;0.60;;
41468;SDS011;27206;47.032;15.484;2023-04-01T17:01:43;0.45;;;0.40;;
41468;SDS011;27206;47.032;15.484;2023-04-01T17:04:29;2.72;;;1.10;;
41468;SDS011;27206;47.032;15.484;2023-04-01T17:17:55;1.80;;;0.98;;
41468;SDS011;27206;47.032;15.484;2023-04-01T17:20:50;1.80;;;0.80;;
41468;SDS011;27206;47.032;15.484;2023-04-01T17:23:28;1.05;;;0.73;;
41468;SDS011;27206;47.032;15.484;2023-04-01T17:26:32;1.05;;;0.82;;
41468;SDS011;27206;47.032;15.484;2023-04-01T17:31:51;1.52;;;0.90;;
41468;SDS011;27206;47.032;15.484;2023-04-01T17:40:53;1.83;;;0.80;;
41468;SDS011;27206;47.032;15.484;2023-04-01T17:43:48;1.92;;;0.98;;
41468;SDS011;27206;47.032;15.484;2023-04-01T17:49:45;4.55;;;2.00;;
41468;SDS011;27206;47.032;15.484;2023-04-01T17:57:56;4.95;;;1.80;;
41468;SDS011;27206;47.032;15.484;2023-04-01T18:14:44;2.45;;;1.40;;
41468;SDS011;27206;47.032;15.484;2023-04-01T18:17:31;3.65;;;1.55;;
41468;SDS011;27206;47.032;15.484;2023-04-01T18:23:14;1.73;;;1.10;;
41468;SDS011;27206;47.032;15.484;2023-04-01T18:26:07;0.88;;;0.80;;
41468;SDS011;27206;47.032;15.484;2023-04-01T18:28:45;1.40;;;1.05;;
41468;SDS011;27206;47.032;15.484;2023-04-01T18:31:36;2.42;;;1.05;;
41468;SDS011;27206;47.032;15.484;2023-04-01T18:34:15;0.70;;;0.60;;
41468;SDS011;27206;47.032;15.484;2023-04-01T18:37:14;0.85;;;0.80;;
41468;SDS011;27206;47.032;15.484;2023-04-01T18:39:56;0.60;;;0.60;;
41468;SDS011;27206;47.032;15.484;2023-04-01T18:42:31;1.38;;;0.70;;
41468;SDS011;27206;47.032;15.484;2023-04-01T18:50:56;2.38;;;0.80;;
41468;SDS011;27206;47.032;15.484;2023-04-01T18:53:29;1.50;;;1.00;;
41468;SDS011;27206;47.032;15.484;2023-04-01T18:56:03;2.58;;;1.35;;
41468;SDS011;27206;47.032;15.484;2023-04-01T18:58:34;2.22;;;1.10;;
41468;SDS011;27206;47.032;15.484;2023-04-01T19:06:49;0.77;;;0.45;;
41468;SDS011;27206;47.032;15.484;2023-04-01T19:20:37;9.57;;;4.25;;
41468;SDS011;27206;47.032;15.484;2023-04-01T19:31:51;2.53;;;1.10;;
41468;SDS011;27206;47.032;15.484;2023-04-01T19:40:21;1.30;;;1.02;;
41468;SDS011;27206;47.032;15.484;2023-04-01T19:43:35;2.35;;;1.40;;
41468;SDS011;27206;47.032;15.484;2023-04-01T19:46:02;2.10;;;1.38;;
41468;SDS011;27206;47.032;15.484;2023-04-01T19:56:34;3.35;;;1.73;;
41468;SDS011;27206;47.032;15.484;2023-04-01T20:01:41;3.35;;;1.90;;
41468;SDS011;27206;47.032;15.484;2023-04-01T20:04:22;4.88;;;1.90;;
41468;SDS011;27206;47.032;15.484;2023-04-01T20:14:45;5.50;;;2.22;;
41468;SDS011;27206;47.032;15.484;2023-04-01T20:17:42;5.75;;;2.30;;
41468;SDS011;27206;47.032;15.484;2023-04-01T20:25:27;4.55;;;2.17;;
41468;SDS011;27206;47.032;15.484;2023-04-01T20:28:00;4.28;;;1.90;;
41468;SDS011;27206;47.032;15.484;2023-04-01T20:41:20;4.57;;;2.20;;
41468;SDS011;27206;47.032;15.484;2023-04-01T20:44:31;3.20;;;1.77;;
41468;SDS011;27206;47.032;15.484;2023-04-01T20:55:52;3.80;;;1.10;;
41468;SDS011;27206;47.032;15.484;2023-04-01T20:58:44;1.23;;;0.90;;
41468;SDS011;27206;47.032;15.484;2023-04-01T21:01:32;3.35;;;1.73;;
41468;SDS011;27206;47.032;15.484;2023-04-01T21:06:44;2.40;;;1.30;;
41468;SDS011;27206;47.032;15.484;2023-04-01T21:15:07;2.53;;;0.80;;
41468;SDS011;27206;47.032;15.484;2023-04-01T21:22:58;0.98;;;0.60;;
41468;SDS011;27206;47.032;15.484;2023-04-01T21:25:46;1.10;;;0.75;;
41468;SDS011;27206;47.032;15.484;2023-04-01T21:31:28;2.28;;;0.68;;
41468;SDS011;27206;47.032;15.484;2023-04-01T22:06:59;2.58;;;0.93;;
41468;SDS011;27206;47.032;15.484;2023-04-01T22:09:50;1.75;;;0.98;;
41468;SDS011;27206;47.032;15.484;2023-04-01T22:18:13;1.80;;;0.80;;
41468;SDS011;27206;47.032;15.484;2023-04-01T22:20:50;0.95;;;0.63;;
41468;SDS011;27206;47.032;15.484;2023-04-01T22:31:28;1.00;;;0.80;;
41468;SDS011;27206;47.032;15.484;2023-04-01T22:34:17;2.25;;;1.20;;
41468;SDS011;27206;47.032;15.484;2023-04-01T22:42:03;1.95;;;1.13;;
41468;SDS011;27206;47.032;15.484;2023-04-01T23:01:47;1.10;;;0.90;;
41468;SDS011;27206;47.032;15.484;2023-04-01T23:04:17;2.13;;;0.93;;
41468;SDS011;27206;47.032;15.484;2023-04-01T23:06:51;1.63;;;0.90;;
41468;SDS011;27206;47.032;15.484;2023-04-01T23:09:27;1.05;;;0.80;;
41468;SDS011;27206;47.032;15.484;2023-04-01T23:25:38;1.52;;;0.90;;
41468;SDS011;27206;47.032;15.484;2023-04-01T23:28:31;1.23;;;0.98;;
41468;SDS011;27206;47.032;15.484;2023-04-01T23:33:56;1.98;;;0.88;;
41468;SDS011;27206;47.032;15.484;2023-04-01T23:36:24;1.98;;;1.08;;
41468;SDS011;27206;47.032;15.484;2023-04-01T23:38:51;2.22;;;1.20;;
41468;SDS011;27206;47.032;15.484;2023-04-01T23:41:18;1.17;;;0.90;;
41468;SDS011;27206;47.032;15.484;2023-04-01T23:43:59;2.97;;;1.52;;
41468;SDS011;27206;47.032;15.484;2023-04-01T23:46:31;1.90;;;1.17;;
41468;SDS011;27206;47.032;15.484;2023-04-01T23:49:00;2.60;;;1.17;;
41468;SDS011;27206;47.032;15.484;2023-04-01T23:51:28;4.38;;;1.10;;
41468;SDS011;27206;47.032;15.484;2023-04-01T23:54:44;2.25;;;1.13;;
41468;SDS011;27206;47.032;15.484;2023-04-01T23:57:09;3.35;;;1.35;;
41468;SDS011;27206;47.032;15.484;2023-04-01T23:59:41;2.08;;;1.00;;
